Latest Weather Observations for North Head

IDN60801

Issued at 3:22 pm EST Thursday 28 May 2020 (issued every 10 minutes, with the page automatically refreshed every 10 minutes)

About weather observations | Map of weather stations | Latest weather observations for NSW | Other Formats
Station Details ID: 066197 Name: NORTH HEAD Lat: -33.82 Lon: 151.30 Height: 90.0 m
Data from the previous 72 hours. | See also: Recent months at North Head
Date/Time
EST
Temp
°C
App
Temp
°C
Dew
Point
°C
Rel
Hum
%
Delta-T
°C
Wind Press
QNH
hPa
Press
MSL
hPa
Rain since
9am
mm
Dir  Spd
km/h
Gust
km/h
Spd
kts
Gust
kts
28/03:00pm - - - - - SSE 13 17 7 9 - - -
28/02:30pm - - - - - SW 7 11 4 6 - - -
28/02:00pm - - - - - WSW 9 15 5 8 - - -
28/01:30pm - - - - - WSW 11 19 6 10 - - -
28/01:00pm - - - - - W 13 20 7 11 - - -
28/12:30pm - - - - - W 11 19 6 10 - - -
28/12:00pm - - - - - W 15 24 8 13 - - -
28/11:30am - - - - - W 17 22 9 12 - - -
28/11:00am - - - - - W 15 22 8 12 - - -
28/10:30am - - - - - WNW 15 20 8 11 - - -
28/10:00am - - - - - WNW 13 19 7 10 - - -
28/09:30am - - - - - WNW 13 17 7 9 - - -
28/09:00am - - - - - WNW 13 17 7 9 - - -
28/08:30am - - - - - WNW 17 20 9 11 - - -
28/08:00am - - - - - WNW 15 20 8 11 - - -
28/07:30am - - - - - WNW 17 22 9 12 - - -
28/07:00am - - - - - WNW 15 20 8 11 - - -
28/06:30am - - - - - NW 11 13 6 7 - - -
28/06:00am - - - - - WNW 13 17 7 9 - - -
28/05:30am - - - - - W 11 13 6 7 - - -
28/05:00am - - - - - WNW 9 11 5 6 - - -
28/04:30am - - - - - WNW 7 9 4 5 - - -
28/04:00am - - - - - WNW 11 13 6 7 - - -
28/03:30am - - - - - W 9 13 5 7 - - -
28/03:00am - - - - - W 9 13 5 7 - - -
28/02:30am - - - - - W 11 17 6 9 - - -
28/02:00am - - - - - WNW 11 15 6 8 - - -
28/01:30am - - - - - W 9 11 5 6 - - -
28/01:00am - - - - - W 7 9 4 5 - - -
28/12:30am - - - - - W 7 9 4 5 - - -
28/12:00am - - - - - W 4 4 2 2 - - -
 
Date/Time
EST
Temp
°C
App
Temp
°C
Dew
Point
°C
Rel
Hum
%
Delta-T
°C
Wind Press
QNH
hPa
Press
MSL
hPa
Rain since
9am
mm
Dir  Spd
km/h
Gust
km/h
Spd
kts
Gust
kts
27/11:30pm - - - - - W 7 9 4 5 - - -
27/11:00pm - - - - - WSW 2 4 1 2 - - -
27/10:30pm - - - - - CALM 0 0 0 0 - - -
27/10:00pm - - - - - CALM 0 0 0 0 - - -
27/09:30pm - - - - - CALM 0 0 0 0 - - -
27/09:00pm - - - - - WSW 2 2 1 1 - - -
27/08:30pm - - - - - WSW 4 4 2 2 - - -
27/08:00pm - - - - - WSW 2 4 1 2 - - -
27/07:30pm - - - - - WSW 4 6 2 3 - - -
27/07:00pm - - - - - WSW 4 6 2 3 - - -
27/06:30pm - - - - - SSW 6 7 3 4 - - -
27/06:00pm - - - - - S 7 11 4 6 - - -
27/05:30pm - - - - - SSE 7 11 4 6 - - -
27/05:00pm - - - - - SSE 7 11 4 6 - - -
27/04:30pm - - - - - SSE 9 11 5 6 - - -
27/04:00pm - - - - - SSE 9 13 5 7 - - -
27/03:30pm - - - - - S 9 17 5 9 - - -
27/03:00pm - - - - - SSE 11 17 6 9 - - -
27/02:30pm - - - - - S 13 19 7 10 - - -
27/02:00pm - - - - - S 13 20 7 11 - - -
27/01:30pm - - - - - S 15 20 8 11 - - -
27/01:00pm - - - - - S 15 22 8 12 - - -
27/12:30pm - - - - - S 9 17 5 9 - - -
27/12:00pm - - - - - SSW 9 15 5 8 - - -
27/11:30am - - - - - SW 11 17 6 9 - - -
27/11:00am - - - - - WSW 11 20 6 11 - - -
27/10:30am - - - - - WSW 9 13 5 7 - - -
27/10:00am - - - - - WSW 9 13 5 7 - - -
27/09:30am - - - - - W 9 17 5 9 - - -
27/09:00am - - - - - W 11 15 6 8 - - -
27/08:30am - - - - - W 11 15 6 8 - - -
27/08:00am - - - - - WNW 11 15 6 8 - - -
27/07:30am - - - - - W 9 13 5 7 - - -
27/07:00am - - - - - W 11 13 6 7 - - -
27/06:30am - - - - - W 11 13 6 7 - - -
27/06:00am - - - - - W 9 13 5 7 - - -
27/05:30am - - - - - W 11 13 6 7 - - -
27/05:00am - - - - - W 11 17 6 9 - - -
27/04:30am - - - - - W 11 15 6 8 - - -
27/04:00am - - - - - WNW 11 15 6 8 - - -
27/03:30am - - - - - WNW 15 20 8 11 - - -
27/03:00am - - - - - WNW 13 20 7 11 - - -
27/02:30am - - - - - W 9 13 5 7 - - -
27/02:00am - - - - - W 11 17 6 9 - - -
27/01:30am - - - - - W 11 15 6 8 - - -
27/01:00am - - - - - W 6 9 3 5 - - -
27/12:30am - - - - - W 9 13 5 7 - - -
27/12:00am - - - - - W 7 13 4 7 - - -
 
Date/Time
EST
Temp
°C
App
Temp
°C
Dew
Point
°C
Rel
Hum
%
Delta-T
°C
Wind Press
QNH
hPa
Press
MSL
hPa
Rain since
9am
mm
Dir  Spd
km/h
Gust
km/h
Spd
kts
Gust
kts
26/11:30pm - - - - - S 11 17 6 9 - - -
26/11:00pm - - - - - SSE 24 37 13 20 - - -
26/10:30pm - - - - - SSE 24 37 13 20 - - -
26/10:00pm - - - - - SE 19 28 10 15 - - -
26/09:30pm - - - - - SSE 17 28 9 15 - - -
26/09:00pm - - - - - SSE 20 32 11 17 - - -
26/08:30pm - - - - - SE 19 28 10 15 - - -
26/08:00pm - - - - - SSE 22 33 12 18 - - -
26/07:30pm - - - - - SSE 20 30 11 16 - - -
26/07:00pm - - - - - SSE 19 28 10 15 - - -
26/06:30pm - - - - - SSE 22 32 12 17 - - -
26/06:00pm - - - - - SSE 22 33 12 18 - - -
26/05:30pm - - - - - SSE 22 35 12 19 - - -
26/05:00pm - - - - - SSE 22 32 12 17 - - -
26/04:30pm - - - - - SSE 30 41 16 22 - - -
26/04:00pm - - - - - SSE 26 39 14 21 - - -
26/03:30pm - - - - - S 19 30 10 16 - - -
26/03:00pm - - - - - SSE 22 32 12 17 - - -
26/02:30pm - - - - - SSE 26 39 14 21 - - -
26/02:00pm - - - - - SSE 28 39 15 21 - - -
26/01:30pm - - - - - SSE 28 39 15 21 - - -
26/01:00pm - - - - - SSE 28 39 15 21 - - -
26/12:49pm - - - - - SSE 30 48 16 26 - - -
26/12:30pm - - - - - SSE 30 41 16 22 - - -
26/12:00pm - - - - - SSE 28 44 15 24 - - -
26/11:30am - - - - - SSE 32 43 17 23 - - -
26/11:06am - - - - - SSE 30 48 16 26 - - -
26/11:00am - - - - - SSE 32 46 17 25 - - -
26/10:30am - - - - - SSE 26 37 14 20 - - -
26/10:00am - - - - - SSE 28 43 15 23 - - -
26/09:45am - - - - - SSE 28 50 15 27 - - -
26/09:30am - - - - - SSE 20 32 11 17 - - -
26/09:08am - - - - - SSW 19 46 10 25 - - -
26/09:00am - - - - - SW 15 22 8 12 - - -
26/08:30am - - - - - SW 15 24 8 13 - - -
26/08:00am - - - - - SSW 17 28 9 15 - - -
26/07:30am - - - - - SW 15 26 8 14 - - -
26/07:00am - - - - - SSW 19 32 10 17 - - -
26/06:30am - - - - - SSW 20 37 11 20 - - -
26/06:00am - - - - - SW 17 24 9 13 - - -
26/05:30am - - - - - SW 22 35 12 19 - - -
26/05:00am - - - - - SW 20 39 11 21 - - -
26/04:30am - - - - - SW 19 32 10 17 - - -
26/04:00am - - - - - SW 20 30 11 16 - - -
26/03:30am - - - - - SW 26 39 14 21 - - -
26/03:00am - - - - - SW 24 41 13 22 - - -
26/02:30am - - - - - SW 22 37 12 20 - - -
26/02:00am - - - - - SW 24 43 13 23 - - -
26/01:30am - - - - - SSW 26 43 14 23 - - -
26/01:13am - - - - - SW 28 46 15 25 - - -
26/01:00am - - - - - SW 24 35 13 19 - - -
26/12:30am - - - - - SSW 22 41 12 22 - - -
26/12:19am - - - - - SSW 28 48 15 26 - - -
26/12:00am - - - - - SW 22 39 12 21 - - -
 
Date/Time
EST
Temp
°C
App
Temp
°C
Dew
Point
°C
Rel
Hum
%
Delta-T
°C
Wind Press
QNH
hPa
Press
MSL
hPa
Rain since
9am
mm
Dir  Spd
km/h
Gust
km/h
Spd
kts
Gust
kts
25/11:30pm - - - - - SW 22 41 12 22 - - -
25/11:00pm - - - - - SW 22 41 12 22 - - -
25/10:30pm - - - - - SW 22 33 12 18 - - -
25/10:00pm - - - - - SW 26 35 14 19 - - -
25/09:30pm - - - - - SW 22 35 12 19 - - -
25/09:00pm - - - - - SW 22 41 12 22 - - -
25/08:30pm - - - - - SSW 22 35 12 19 - - -
25/08:00pm - - - - - SW 22 41 12 22 - - -
25/07:30pm - - - - - SSW 26 48 14 26 - - -
25/07:01pm - - - - - SSW 28 48 15 26 - - -
25/07:00pm - - - - - SSW 26 48 14 26 - - -
25/06:30pm - - - - - SW 26 43 14 23 - - -
25/06:00pm - - - - - SW 28 46 15 25 - - -
25/05:30pm - - - - - SW 28 46 15 25 - - -
25/05:00pm - - - - - SW 32 52 17 28 - - -
25/04:37pm - - - - - SW 28 46 15 25 - - -
25/04:30pm - - - - - SW 30 44 16 24 - - -
25/04:00pm - - - - - SW 30 50 16 27 - - -
25/03:30pm - - - - - SW 33 63 18 34 - - -

Other formats

Comma delimited format used in spreadsheet applications
http://www.bom.gov.au/fwo/IDN60801/IDN60801.95768.axf

JavaScript Object Notation format (JSON) in row-major order
http://www.bom.gov.au/fwo/IDN60801/IDN60801.95768.json

Data quality

Most of these data are generated automatically and are frequently updated. Quality checks on data are not normally performed. It is possible for incorrect values to appear. Refer to information at About Latest Weather Observations and please check the disclaimer before using these data.